sensor_id;sensor_type;location;lat;lon;timestamp;P1;durP1;ratioP1;P2;durP2;ratioP2
7402;SDS011;3742;48.770;11.440;2022-12-07T00:01:50;4.80;;;4.40;;
7402;SDS011;3742;48.770;11.440;2022-12-07T00:04:19;4.63;;;4.23;;
7402;SDS011;3742;48.770;11.440;2022-12-07T00:06:50;4.67;;;4.17;;
7402;SDS011;3742;48.770;11.440;2022-12-07T00:09:19;4.57;;;4.17;;
7402;SDS011;3742;48.770;11.440;2022-12-07T00:11:48;4.97;;;4.27;;
7402;SDS011;3742;48.770;11.440;2022-12-07T00:14:19;6.10;;;4.70;;
7402;SDS011;3742;48.770;11.440;2022-12-07T00:16:48;5.23;;;4.73;;
7402;SDS011;3742;48.770;11.440;2022-12-07T00:19:18;5.00;;;4.57;;
7402;SDS011;3742;48.770;11.440;2022-12-07T00:21:46;4.47;;;4.07;;
7402;SDS011;3742;48.770;11.440;2022-12-07T00:24:15;5.10;;;4.70;;
7402;SDS011;3742;48.770;11.440;2022-12-07T00:26:43;5.10;;;4.60;;
7402;SDS011;3742;48.770;11.440;2022-12-07T00:29:14;5.17;;;4.77;;
7402;SDS011;3742;48.770;11.440;2022-12-07T00:31:46;6.27;;;5.13;;
7402;SDS011;3742;48.770;11.440;2022-12-07T00:34:15;5.27;;;4.87;;
7402;SDS011;3742;48.770;11.440;2022-12-07T00:36:45;4.67;;;4.27;;
7402;SDS011;3742;48.770;11.440;2022-12-07T00:39:14;5.83;;;5.33;;
7402;SDS011;3742;48.770;11.440;2022-12-07T00:41:43;5.37;;;4.87;;
7402;SDS011;3742;48.770;11.440;2022-12-07T00:44:11;6.00;;;5.40;;
7402;SDS011;3742;48.770;11.440;2022-12-07T00:46:40;5.47;;;4.97;;
7402;SDS011;3742;48.770;11.440;2022-12-07T00:49:10;5.43;;;4.93;;
7402;SDS011;3742;48.770;11.440;2022-12-07T00:51:39;5.50;;;5.00;;
7402;SDS011;3742;48.770;11.440;2022-12-07T00:54:08;6.07;;;5.53;;
7402;SDS011;3742;48.770;11.440;2022-12-07T00:56:36;5.77;;;5.10;;
7402;SDS011;3742;48.770;11.440;2022-12-07T00:59:05;5.40;;;4.90;;
7402;SDS011;3742;48.770;11.440;2022-12-07T01:01:34;5.33;;;4.93;;
7402;SDS011;3742;48.770;11.440;2022-12-07T01:04:04;5.40;;;4.90;;
7402;SDS011;3742;48.770;11.440;2022-12-07T01:06:34;5.67;;;5.17;;
7402;SDS011;3742;48.770;11.440;2022-12-07T01:09:02;5.53;;;5.03;;
7402;SDS011;3742;48.770;11.440;2022-12-07T01:11:32;5.20;;;4.70;;
7402;SDS011;3742;48.770;11.440;2022-12-07T01:14:00;5.70;;;5.20;;
7402;SDS011;3742;48.770;11.440;2022-12-07T01:16:30;5.30;;;4.80;;
7402;SDS011;3742;48.770;11.440;2022-12-07T01:19:00;5.60;;;5.10;;
7402;SDS011;3742;48.770;11.440;2022-12-07T01:21:30;5.90;;;5.40;;
7402;SDS011;3742;48.770;11.440;2022-12-07T01:24:03;5.30;;;4.80;;
7402;SDS011;3742;48.770;11.440;2022-12-07T01:26:33;5.47;;;5.03;;
7402;SDS011;3742;48.770;11.440;2022-12-07T01:29:02;6.23;;;5.57;;
7402;SDS011;3742;48.770;11.440;2022-12-07T01:31:30;5.70;;;5.20;;
7402;SDS011;3742;48.770;11.440;2022-12-07T01:33:59;6.07;;;5.57;;
7402;SDS011;3742;48.770;11.440;2022-12-07T01:36:29;6.07;;;5.57;;
7402;SDS011;3742;48.770;11.440;2022-12-07T01:38:59;7.80;;;4.70;;
7402;SDS011;3742;48.770;11.440;2022-12-07T01:41:30;5.83;;;5.33;;
7402;SDS011;3742;48.770;11.440;2022-12-07T01:44:08;6.13;;;5.60;;
7402;SDS011;3742;48.770;11.440;2022-12-07T01:46:44;6.13;;;5.47;;
7402;SDS011;3742;48.770;11.440;2022-12-07T01:49:16;6.57;;;5.97;;
7402;SDS011;3742;48.770;11.440;2022-12-07T01:51:49;6.87;;;5.93;;
7402;SDS011;3742;48.770;11.440;2022-12-07T01:54:20;8.63;;;7.23;;
7402;SDS011;3742;48.770;11.440;2022-12-07T01:56:51;6.73;;;6.13;;
7402;SDS011;3742;48.770;11.440;2022-12-07T01:59:23;7.20;;;6.50;;
7402;SDS011;3742;48.770;11.440;2022-12-07T02:01:53;7.47;;;6.77;;
7402;SDS011;3742;48.770;11.440;2022-12-07T02:04:22;7.10;;;6.40;;
7402;SDS011;3742;48.770;11.440;2022-12-07T02:06:51;7.10;;;6.40;;
7402;SDS011;3742;48.770;11.440;2022-12-07T02:09:21;7.27;;;6.57;;
7402;SDS011;3742;48.770;11.440;2022-12-07T02:11:51;7.03;;;6.43;;
7402;SDS011;3742;48.770;11.440;2022-12-07T02:14:19;7.00;;;6.30;;
7402;SDS011;3742;48.770;11.440;2022-12-07T02:16:51;6.60;;;6.00;;
7402;SDS011;3742;48.770;11.440;2022-12-07T02:22:42;6.87;;;6.27;;
7402;SDS011;3742;48.770;11.440;2022-12-07T02:25:24;6.60;;;6.00;;
7402;SDS011;3742;48.770;11.440;2022-12-07T02:28:04;7.03;;;6.33;;
7402;SDS011;3742;48.770;11.440;2022-12-07T02:30:36;7.37;;;6.67;;
7402;SDS011;3742;48.770;11.440;2022-12-07T02:33:11;6.50;;;5.90;;
7402;SDS011;3742;48.770;11.440;2022-12-07T02:35:42;8.30;;;6.43;;
7402;SDS011;3742;48.770;11.440;2022-12-07T02:38:13;6.80;;;6.10;;
7402;SDS011;3742;48.770;11.440;2022-12-07T02:40:46;6.80;;;5.83;;
7402;SDS011;3742;48.770;11.440;2022-12-07T02:43:19;7.60;;;6.30;;
7402;SDS011;3742;48.770;11.440;2022-12-07T02:45:53;7.33;;;6.60;;
7402;SDS011;3742;48.770;11.440;2022-12-07T02:48:23;7.37;;;6.20;;
7402;SDS011;3742;48.770;11.440;2022-12-07T02:50:53;6.53;;;5.93;;
7402;SDS011;3742;48.770;11.440;2022-12-07T02:53:29;7.10;;;6.17;;
7402;SDS011;3742;48.770;11.440;2022-12-07T02:56:01;7.20;;;6.50;;
7402;SDS011;3742;48.770;11.440;2022-12-07T02:58:35;7.03;;;6.33;;
7402;SDS011;3742;48.770;11.440;2022-12-07T03:01:13;7.53;;;6.83;;
7402;SDS011;3742;48.770;11.440;2022-12-07T03:03:46;8.33;;;7.53;;
7402;SDS011;3742;48.770;11.440;2022-12-07T03:06:19;7.40;;;6.50;;
7402;SDS011;3742;48.770;11.440;2022-12-07T03:08:51;7.67;;;6.70;;
7402;SDS011;3742;48.770;11.440;2022-12-07T03:11:25;8.83;;;6.83;;
7402;SDS011;3742;48.770;11.440;2022-12-07T03:13:55;8.40;;;7.60;;
7402;SDS011;3742;48.770;11.440;2022-12-07T03:16:30;7.70;;;7.00;;
7402;SDS011;3742;48.770;11.440;2022-12-07T03:19:03;8.60;;;7.70;;
7402;SDS011;3742;48.770;11.440;2022-12-07T03:21:37;8.33;;;7.53;;
7402;SDS011;3742;48.770;11.440;2022-12-07T03:24:08;8.70;;;7.90;;
7402;SDS011;3742;48.770;11.440;2022-12-07T03:26:40;8.57;;;7.77;;
7402;SDS011;3742;48.770;11.440;2022-12-07T03:29:12;8.67;;;7.87;;
7402;SDS011;3742;48.770;11.440;2022-12-07T03:31:46;8.07;;;7.27;;
7402;SDS011;3742;48.770;11.440;2022-12-07T03:34:17;8.13;;;7.33;;
7402;SDS011;3742;48.770;11.440;2022-12-07T03:36:49;8.97;;;7.37;;
7402;SDS011;3742;48.770;11.440;2022-12-07T03:39:22;8.73;;;7.57;;
7402;SDS011;3742;48.770;11.440;2022-12-07T03:41:53;8.47;;;7.63;;
7402;SDS011;3742;48.770;11.440;2022-12-07T03:44:22;8.90;;;7.87;;
7402;SDS011;3742;48.770;11.440;2022-12-07T03:46:55;8.93;;;8.03;;
7402;SDS011;3742;48.770;11.440;2022-12-07T03:49:30;9.10;;;8.17;;
7402;SDS011;3742;48.770;11.440;2022-12-07T03:52:02;8.03;;;7.33;;
7402;SDS011;3742;48.770;11.440;2022-12-07T03:54:37;8.17;;;7.33;;
7402;SDS011;3742;48.770;11.440;2022-12-07T03:57:08;8.10;;;7.30;;
7402;SDS011;3742;48.770;11.440;2022-12-07T03:59:38;8.60;;;7.80;;
7402;SDS011;3742;48.770;11.440;2022-12-07T04:02:10;8.93;;;8.13;;
7402;SDS011;3742;48.770;11.440;2022-12-07T04:04:40;8.37;;;7.40;;
7402;SDS011;3742;48.770;11.440;2022-12-07T04:07:09;8.30;;;7.50;;
7402;SDS011;3742;48.770;11.440;2022-12-07T04:09:39;8.63;;;7.83;;
7402;SDS011;3742;48.770;11.440;2022-12-07T04:12:08;8.27;;;7.47;;
7402;SDS011;3742;48.770;11.440;2022-12-07T04:14:37;8.27;;;7.47;;
7402;SDS011;3742;48.770;11.440;2022-12-07T04:17:05;9.17;;;8.27;;
7402;SDS011;3742;48.770;11.440;2022-12-07T04:19:35;8.70;;;7.90;;
7402;SDS011;3742;48.770;11.440;2022-12-07T04:22:04;9.20;;;8.30;;
7402;SDS011;3742;48.770;11.440;2022-12-07T04:24:33;8.47;;;7.67;;
7402;SDS011;3742;48.770;11.440;2022-12-07T04:27:02;9.63;;;8.70;;
7402;SDS011;3742;48.770;11.440;2022-12-07T04:29:31;9.20;;;8.30;;
7402;SDS011;3742;48.770;11.440;2022-12-07T04:31:59;9.50;;;8.60;;
7402;SDS011;3742;48.770;11.440;2022-12-07T04:34:28;8.70;;;7.90;;
7402;SDS011;3742;48.770;11.440;2022-12-07T04:36:58;9.47;;;8.57;;
7402;SDS011;3742;48.770;11.440;2022-12-07T04:39:27;10.07;;;8.43;;
7402;SDS011;3742;48.770;11.440;2022-12-07T04:41:57;9.87;;;8.87;;
7402;SDS011;3742;48.770;11.440;2022-12-07T04:44:26;10.53;;;8.83;;
7402;SDS011;3742;48.770;11.440;2022-12-07T04:46:55;8.47;;;7.67;;
7402;SDS011;3742;48.770;11.440;2022-12-07T04:49:24;9.10;;;8.07;;
7402;SDS011;3742;48.770;11.440;2022-12-07T04:51:53;9.40;;;8.20;;
7402;SDS011;3742;48.770;11.440;2022-12-07T04:54:23;9.27;;;8.37;;
7402;SDS011;3742;48.770;11.440;2022-12-07T04:56:52;10.13;;;8.43;;
7402;SDS011;3742;48.770;11.440;2022-12-07T04:59:20;9.87;;;8.87;;
7402;SDS011;3742;48.770;11.440;2022-12-07T05:01:49;9.57;;;8.67;;
7402;SDS011;3742;48.770;11.440;2022-12-07T05:04:18;9.40;;;8.50;;
7402;SDS011;3742;48.770;11.440;2022-12-07T05:06:46;9.53;;;8.63;;
7402;SDS011;3742;48.770;11.440;2022-12-07T05:09:15;10.13;;;9.03;;
7402;SDS011;3742;48.770;11.440;2022-12-07T05:11:45;10.17;;;8.90;;
7402;SDS011;3742;48.770;11.440;2022-12-07T05:14:14;10.70;;;9.70;;
7402;SDS011;3742;48.770;11.440;2022-12-07T05:16:44;9.83;;;8.30;;
7402;SDS011;3742;48.770;11.440;2022-12-07T05:19:14;9.90;;;8.90;;
7402;SDS011;3742;48.770;11.440;2022-12-07T05:21:43;9.67;;;8.63;;
7402;SDS011;3742;48.770;11.440;2022-12-07T05:24:13;10.37;;;9.37;;
7402;SDS011;3742;48.770;11.440;2022-12-07T05:26:42;10.93;;;9.23;;
7402;SDS011;3742;48.770;11.440;2022-12-07T05:29:12;9.47;;;8.47;;
7402;SDS011;3742;48.770;11.440;2022-12-07T05:31:42;9.70;;;8.77;;
7402;SDS011;3742;48.770;11.440;2022-12-07T05:34:11;9.97;;;8.70;;
7402;SDS011;3742;48.770;11.440;2022-12-07T05:36:39;9.60;;;8.60;;
7402;SDS011;3742;48.770;11.440;2022-12-07T05:39:08;9.03;;;8.13;;
7402;SDS011;3742;48.770;11.440;2022-12-07T05:41:36;10.57;;;8.67;;
7402;SDS011;3742;48.770;11.440;2022-12-07T05:44:24;11.57;;;8.63;;
7402;SDS011;3742;48.770;11.440;2022-12-07T05:46:53;9.13;;;8.23;;
7402;SDS011;3742;48.770;11.440;2022-12-07T05:49:22;9.90;;;8.27;;
7402;SDS011;3742;48.770;11.440;2022-12-07T05:51:50;9.27;;;8.37;;
7402;SDS011;3742;48.770;11.440;2022-12-07T05:54:19;10.27;;;8.50;;
7402;SDS011;3742;48.770;11.440;2022-12-07T05:56:48;9.20;;;8.30;;
7402;SDS011;3742;48.770;11.440;2022-12-07T05:59:17;10.00;;;9.00;;
7402;SDS011;3742;48.770;11.440;2022-12-07T06:01:52;10.20;;;9.10;;
7402;SDS011;3742;48.770;11.440;2022-12-07T06:04:22;12.30;;;9.37;;
7402;SDS011;3742;48.770;11.440;2022-12-07T06:06:51;10.57;;;9.50;;
7402;SDS011;3742;48.770;11.440;2022-12-07T06:09:21;11.63;;;9.50;;
7402;SDS011;3742;48.770;11.440;2022-12-07T06:11:50;10.47;;;9.37;;
7402;SDS011;3742;48.770;11.440;2022-12-07T06:14:36;10.33;;;8.70;;
7402;SDS011;3742;48.770;11.440;2022-12-07T06:17:07;10.37;;;8.77;;
7402;SDS011;3742;48.770;11.440;2022-12-07T06:19:36;13.07;;;11.03;;
7402;SDS011;3742;48.770;11.440;2022-12-07T06:22:04;10.83;;;9.77;;
7402;SDS011;3742;48.770;11.440;2022-12-07T06:24:34;11.37;;;10.07;;
7402;SDS011;3742;48.770;11.440;2022-12-07T06:27:03;12.43;;;9.60;;
7402;SDS011;3742;48.770;11.440;2022-12-07T06:29:31;9.77;;;8.77;;
7402;SDS011;3742;48.770;11.440;2022-12-07T06:32:00;10.33;;;9.00;;
7402;SDS011;3742;48.770;11.440;2022-12-07T06:34:30;10.87;;;9.40;;
7402;SDS011;3742;48.770;11.440;2022-12-07T06:36:59;11.37;;;9.27;;
7402;SDS011;3742;48.770;11.440;2022-12-07T06:39:27;11.03;;;9.47;;
7402;SDS011;3742;48.770;11.440;2022-12-07T06:41:56;10.17;;;9.07;;
7402;SDS011;3742;48.770;11.440;2022-12-07T06:44:25;10.03;;;9.03;;
7402;SDS011;3742;48.770;11.440;2022-12-07T06:46:54;11.23;;;9.50;;
7402;SDS011;3742;48.770;11.440;2022-12-07T06:49:44;10.43;;;9.10;;
7402;SDS011;3742;48.770;11.440;2022-12-07T06:52:13;11.30;;;9.50;;
7402;SDS011;3742;48.770;11.440;2022-12-07T06:54:41;10.97;;;9.53;;
7402;SDS011;3742;48.770;11.440;2022-12-07T06:57:10;10.90;;;9.77;;
7402;SDS011;3742;48.770;11.440;2022-12-07T06:59:38;12.67;;;10.10;;
7402;SDS011;3742;48.770;11.440;2022-12-07T07:02:07;12.53;;;10.40;;
7402;SDS011;3742;48.770;11.440;2022-12-07T07:04:36;12.03;;;10.73;;
7402;SDS011;3742;48.770;11.440;2022-12-07T07:07:06;14.43;;;10.83;;
7402;SDS011;3742;48.770;11.440;2022-12-07T07:09:35;12.17;;;10.17;;
7402;SDS011;3742;48.770;11.440;2022-12-07T07:12:03;13.80;;;10.37;;
7402;SDS011;3742;48.770;11.440;2022-12-07T07:14:32;11.37;;;9.77;;
7402;SDS011;3742;48.770;11.440;2022-12-07T07:17:00;12.80;;;10.70;;
7402;SDS011;3742;48.770;11.440;2022-12-07T07:19:29;11.30;;;10.03;;
7402;SDS011;3742;48.770;11.440;2022-12-07T07:21:57;12.87;;;11.50;;
7402;SDS011;3742;48.770;11.440;2022-12-07T07:24:27;14.97;;;10.77;;
7402;SDS011;3742;48.770;11.440;2022-12-07T07:26:56;12.50;;;11.03;;
7402;SDS011;3742;48.770;11.440;2022-12-07T07:29:24;12.77;;;11.37;;
7402;SDS011;3742;48.770;11.440;2022-12-07T07:31:53;13.60;;;11.40;;
7402;SDS011;3742;48.770;11.440;2022-12-07T07:34:21;13.47;;;11.13;;
7402;SDS011;3742;48.770;11.440;2022-12-07T07:36:50;13.47;;;11.13;;
7402;SDS011;3742;48.770;11.440;2022-12-07T07:39:18;11.63;;;9.77;;
7402;SDS011;3742;48.770;11.440;2022-12-07T07:41:48;12.57;;;10.37;;
7402;SDS011;3742;48.770;11.440;2022-12-07T07:44:24;12.53;;;10.70;;
7402;SDS011;3742;48.770;11.440;2022-12-07T07:47:00;12.67;;;10.33;;
7402;SDS011;3742;48.770;11.440;2022-12-07T07:49:29;12.83;;;10.00;;
7402;SDS011;3742;48.770;11.440;2022-12-07T07:51:57;11.83;;;9.70;;
7402;SDS011;3742;48.770;11.440;2022-12-07T07:54:26;10.83;;;9.73;;
7402;SDS011;3742;48.770;11.440;2022-12-07T07:56:56;17.10;;;10.23;;
7402;SDS011;3742;48.770;11.440;2022-12-07T07:59:25;12.37;;;10.90;;
7402;SDS011;3742;48.770;11.440;2022-12-07T08:01:53;11.57;;;9.93;;
7402;SDS011;3742;48.770;11.440;2022-12-07T08:04:22;13.23;;;10.10;;
7402;SDS011;3742;48.770;11.440;2022-12-07T08:06:50;11.87;;;9.47;;
7402;SDS011;3742;48.770;11.440;2022-12-07T08:09:19;10.70;;;9.53;;
7402;SDS011;3742;48.770;11.440;2022-12-07T08:11:48;12.60;;;10.90;;
7402;SDS011;3742;48.770;11.440;2022-12-07T08:14:18;12.97;;;10.53;;
7402;SDS011;3742;48.770;11.440;2022-12-07T08:16:47;28.33;;;11.20;;
7402;SDS011;3742;48.770;11.440;2022-12-07T08:19:16;18.83;;;10.30;;
7402;SDS011;3742;48.770;11.440;2022-12-07T08:21:44;16.07;;;11.43;;
7402;SDS011;3742;48.770;11.440;2022-12-07T08:24:13;12.60;;;10.17;;
7402;SDS011;3742;48.770;11.440;2022-12-07T08:26:42;12.37;;;11.07;;
7402;SDS011;3742;48.770;11.440;2022-12-07T08:29:11;12.40;;;11.13;;
7402;SDS011;3742;48.770;11.440;2022-12-07T08:31:41;13.37;;;10.10;;
7402;SDS011;3742;48.770;11.440;2022-12-07T08:34:09;12.70;;;11.40;;
7402;SDS011;3742;48.770;11.440;2022-12-07T08:36:38;15.10;;;11.20;;
7402;SDS011;3742;48.770;11.440;2022-12-07T08:39:07;14.10;;;12.67;;
7402;SDS011;3742;48.770;11.440;2022-12-07T08:41:56;16.03;;;11.73;;
7402;SDS011;3742;48.770;11.440;2022-12-07T08:44:24;16.13;;;12.10;;
7402;SDS011;3742;48.770;11.440;2022-12-07T08:46:55;14.80;;;12.37;;
7402;SDS011;3742;48.770;11.440;2022-12-07T08:49:26;13.33;;;11.80;;
7402;SDS011;3742;48.770;11.440;2022-12-07T08:51:56;14.27;;;11.63;;
7402;SDS011;3742;48.770;11.440;2022-12-07T08:54:25;15.30;;;12.57;;
7402;SDS011;3742;48.770;11.440;2022-12-07T08:56:54;18.13;;;11.83;;
7402;SDS011;3742;48.770;11.440;2022-12-07T08:59:26;12.20;;;10.70;;
7402;SDS011;3742;48.770;11.440;2022-12-07T09:01:56;14.37;;;10.90;;
7402;SDS011;3742;48.770;11.440;2022-12-07T09:04:25;12.03;;;10.23;;
7402;SDS011;3742;48.770;11.440;2022-12-07T09:06:54;12.77;;;11.00;;
7402;SDS011;3742;48.770;11.440;2022-12-07T09:09:23;12.90;;;11.60;;
7402;SDS011;3742;48.770;11.440;2022-12-07T09:11:52;13.03;;;10.83;;
7402;SDS011;3742;48.770;11.440;2022-12-07T09:14:20;12.47;;;11.17;;
7402;SDS011;3742;48.770;11.440;2022-12-07T09:16:49;12.13;;;10.50;;
7402;SDS011;3742;48.770;11.440;2022-12-07T09:19:19;13.37;;;11.17;;
7402;SDS011;3742;48.770;11.440;2022-12-07T09:21:47;12.53;;;10.83;;
7402;SDS011;3742;48.770;11.440;2022-12-07T09:24:16;15.50;;;12.83;;
7402;SDS011;3742;48.770;11.440;2022-12-07T09:26:44;14.57;;;11.63;;
7402;SDS011;3742;48.770;11.440;2022-12-07T09:29:13;11.43;;;10.23;;
7402;SDS011;3742;48.770;11.440;2022-12-07T09:31:41;14.10;;;10.80;;
7402;SDS011;3742;48.770;11.440;2022-12-07T09:34:10;11.80;;;10.17;;
7402;SDS011;3742;48.770;11.440;2022-12-07T09:36:40;14.07;;;11.87;;
7402;SDS011;3742;48.770;11.440;2022-12-07T09:39:10;12.73;;;11.30;;
7402;SDS011;3742;48.770;11.440;2022-12-07T09:41:38;12.37;;;10.87;;
7402;SDS011;3742;48.770;11.440;2022-12-07T09:44:09;13.83;;;11.67;;
7402;SDS011;3742;48.770;11.440;2022-12-07T09:46:40;14.40;;;11.83;;
7402;SDS011;3742;48.770;11.440;2022-12-07T09:49:11;13.63;;;11.30;;
7402;SDS011;3742;48.770;11.440;2022-12-07T09:51:42;13.90;;;11.90;;
7402;SDS011;3742;48.770;11.440;2022-12-07T09:54:11;12.83;;;10.53;;
7402;SDS011;3742;48.770;11.440;2022-12-07T09:56:41;14.30;;;11.37;;
7402;SDS011;3742;48.770;11.440;2022-12-07T09:59:12;13.67;;;12.27;;
7402;SDS011;3742;48.770;11.440;2022-12-07T10:01:43;12.87;;;11.03;;
7402;SDS011;3742;48.770;11.440;2022-12-07T10:04:13;12.63;;;10.37;;
7402;SDS011;3742;48.770;11.440;2022-12-07T10:06:45;15.83;;;10.70;;
7402;SDS011;3742;48.770;11.440;2022-12-07T10:09:15;13.13;;;11.50;;
7402;SDS011;3742;48.770;11.440;2022-12-07T10:12:01;12.23;;;10.87;;
7402;SDS011;3742;48.770;11.440;2022-12-07T10:14:32;12.90;;;9.83;;
7402;SDS011;3742;48.770;11.440;2022-12-07T10:17:29;12.43;;;9.73;;
7402;SDS011;3742;48.770;11.440;2022-12-07T10:20:08;12.97;;;9.90;;
7402;SDS011;3742;48.770;11.440;2022-12-07T10:22:56;15.33;;;9.90;;
7402;SDS011;3742;48.770;11.440;2022-12-07T10:25:27;10.73;;;9.07;;
7402;SDS011;3742;48.770;11.440;2022-12-07T10:27:57;16.00;;;11.37;;
7402;SDS011;3742;48.770;11.440;2022-12-07T10:30:28;13.23;;;10.03;;
7402;SDS011;3742;48.770;11.440;2022-12-07T10:32:58;12.47;;;10.23;;
7402;SDS011;3742;48.770;11.440;2022-12-07T10:35:27;11.37;;;9.77;;
7402;SDS011;3742;48.770;11.440;2022-12-07T10:37:58;13.13;;;10.43;;
7402;SDS011;3742;48.770;11.440;2022-12-07T10:40:32;13.00;;;10.03;;
7402;SDS011;3742;48.770;11.440;2022-12-07T10:43:02;11.53;;;9.23;;
7402;SDS011;3742;48.770;11.440;2022-12-07T10:45:34;12.57;;;10.33;;
7402;SDS011;3742;48.770;11.440;2022-12-07T10:48:13;12.20;;;9.20;;
7402;SDS011;3742;48.770;11.440;2022-12-07T10:50:47;12.47;;;9.70;;
7402;SDS011;3742;48.770;11.440;2022-12-07T10:53:35;14.63;;;11.13;;
7402;SDS011;3742;48.770;11.440;2022-12-07T10:56:20;12.67;;;9.40;;
7402;SDS011;3742;48.770;11.440;2022-12-07T10:59:00;11.60;;;9.93;;
7402;SDS011;3742;48.770;11.440;2022-12-07T11:01:40;11.63;;;9.83;;
7402;SDS011;3742;48.770;11.440;2022-12-07T11:07:00;12.33;;;9.50;;
7402;SDS011;3742;48.770;11.440;2022-12-07T11:12:46;12.23;;;9.83;;
7402;SDS011;3742;48.770;11.440;2022-12-07T11:15:36;12.00;;;9.07;;
7402;SDS011;3742;48.770;11.440;2022-12-07T11:18:11;11.57;;;8.40;;
7402;SDS011;3742;48.770;11.440;2022-12-07T11:20:45;11.33;;;9.47;;
7402;SDS011;3742;48.770;11.440;2022-12-07T11:23:24;10.10;;;8.87;;
7402;SDS011;3742;48.770;11.440;2022-12-07T11:26:01;12.33;;;9.70;;
7402;SDS011;3742;48.770;11.440;2022-12-07T11:28:38;10.80;;;9.47;;
7402;SDS011;3742;48.770;11.440;2022-12-07T11:31:17;10.33;;;9.00;;
7402;SDS011;3742;48.770;11.440;2022-12-07T11:33:57;10.07;;;8.63;;
7402;SDS011;3742;48.770;11.440;2022-12-07T11:36:33;11.47;;;8.67;;
7402;SDS011;3742;48.770;11.440;2022-12-07T11:39:09;10.33;;;8.30;;
7402;SDS011;3742;48.770;11.440;2022-12-07T11:41:54;10.97;;;8.87;;
7402;SDS011;3742;48.770;11.440;2022-12-07T11:44:27;11.07;;;9.20;;
7402;SDS011;3742;48.770;11.440;2022-12-07T11:47:05;10.53;;;8.73;;
7402;SDS011;3742;48.770;11.440;2022-12-07T11:49:40;14.30;;;9.00;;
7402;SDS011;3742;48.770;11.440;2022-12-07T11:52:14;9.97;;;7.90;;
7402;SDS011;3742;48.770;11.440;2022-12-07T11:54:47;10.60;;;9.20;;
7402;SDS011;3742;48.770;11.440;2022-12-07T11:57:22;10.60;;;8.20;;
7402;SDS011;3742;48.770;11.440;2022-12-07T11:59:55;11.00;;;8.43;;
7402;SDS011;3742;48.770;11.440;2022-12-07T12:02:26;11.20;;;8.47;;
7402;SDS011;3742;48.770;11.440;2022-12-07T12:04:58;10.97;;;7.97;;
7402;SDS011;3742;48.770;11.440;2022-12-07T12:07:31;9.23;;;7.83;;
7402;SDS011;3742;48.770;11.440;2022-12-07T12:10:21;10.10;;;8.07;;
7402;SDS011;3742;48.770;11.440;2022-12-07T12:16:12;12.80;;;8.57;;
7402;SDS011;3742;48.770;11.440;2022-12-07T12:18:53;12.83;;;9.47;;
7402;SDS011;3742;48.770;11.440;2022-12-07T12:21:27;12.53;;;8.27;;
7402;SDS011;3742;48.770;11.440;2022-12-07T12:23:57;11.37;;;8.43;;
7402;SDS011;3742;48.770;11.440;2022-12-07T12:26:28;11.20;;;8.13;;
7402;SDS011;3742;48.770;11.440;2022-12-07T12:29:00;9.27;;;8.30;;
7402;SDS011;3742;48.770;11.440;2022-12-07T12:31:32;10.40;;;8.33;;
7402;SDS011;3742;48.770;11.440;2022-12-07T12:37:00;10.57;;;8.20;;
7402;SDS011;3742;48.770;11.440;2022-12-07T12:39:28;11.77;;;8.77;;
7402;SDS011;3742;48.770;11.440;2022-12-07T12:41:58;10.57;;;7.93;;
7402;SDS011;3742;48.770;11.440;2022-12-07T12:47:41;8.97;;;7.23;;
7402;SDS011;3742;48.770;11.440;2022-12-07T12:50:15;11.50;;;7.80;;
7402;SDS011;3742;48.770;11.440;2022-12-07T12:52:48;9.77;;;8.67;;
7402;SDS011;3742;48.770;11.440;2022-12-07T12:58:38;11.20;;;7.83;;
7402;SDS011;3742;48.770;11.440;2022-12-07T13:07:47;10.13;;;8.67;;
7402;SDS011;3742;48.770;11.440;2022-12-07T13:22:39;8.77;;;7.53;;
7402;SDS011;3742;48.770;11.440;2022-12-07T13:25:10;9.87;;;7.87;;
7402;SDS011;3742;48.770;11.440;2022-12-07T13:27:40;9.63;;;8.10;;
7402;SDS011;3742;48.770;11.440;2022-12-07T13:30:13;11.07;;;8.37;;
7402;SDS011;3742;48.770;11.440;2022-12-07T13:32:43;11.47;;;8.93;;
7402;SDS011;3742;48.770;11.440;2022-12-07T13:35:27;12.00;;;8.53;;
7402;SDS011;3742;48.770;11.440;2022-12-07T13:37:59;9.40;;;7.20;;
7402;SDS011;3742;48.770;11.440;2022-12-07T13:40:29;14.70;;;8.83;;
7402;SDS011;3742;48.770;11.440;2022-12-07T13:42:58;12.13;;;8.90;;
7402;SDS011;3742;48.770;11.440;2022-12-07T13:45:29;12.23;;;8.20;;
7402;SDS011;3742;48.770;11.440;2022-12-07T13:48:20;9.87;;;8.80;;
7402;SDS011;3742;48.770;11.440;2022-12-07T13:50:53;10.90;;;8.53;;
7402;SDS011;3742;48.770;11.440;2022-12-07T13:53:24;10.40;;;8.03;;
7402;SDS011;3742;48.770;11.440;2022-12-07T13:55:55;10.17;;;8.87;;
7402;SDS011;3742;48.770;11.440;2022-12-07T13:58:23;10.70;;;8.30;;
7402;SDS011;3742;48.770;11.440;2022-12-07T14:00:52;9.47;;;7.80;;
7402;SDS011;3742;48.770;11.440;2022-12-07T14:03:26;9.80;;;7.83;;
7402;SDS011;3742;48.770;11.440;2022-12-07T14:06:10;10.13;;;7.40;;
7402;SDS011;3742;48.770;11.440;2022-12-07T14:08:44;11.60;;;8.00;;
7402;SDS011;3742;48.770;11.440;2022-12-07T14:11:14;12.17;;;8.53;;
7402;SDS011;3742;48.770;11.440;2022-12-07T14:13:55;10.17;;;8.20;;
7402;SDS011;3742;48.770;11.440;2022-12-07T14:16:26;10.63;;;8.53;;
7402;SDS011;3742;48.770;11.440;2022-12-07T14:18:58;9.87;;;7.80;;
7402;SDS011;3742;48.770;11.440;2022-12-07T14:21:28;11.70;;;7.53;;
7402;SDS011;3742;48.770;11.440;2022-12-07T14:24:14;10.00;;;8.20;;
7402;SDS011;3742;48.770;11.440;2022-12-07T14:26:45;9.57;;;7.77;;
7402;SDS011;3742;48.770;11.440;2022-12-07T14:29:18;8.43;;;7.10;;
7402;SDS011;3742;48.770;11.440;2022-12-07T14:31:48;9.00;;;7.50;;
7402;SDS011;3742;48.770;11.440;2022-12-07T14:34:19;9.60;;;7.83;;
7402;SDS011;3742;48.770;11.440;2022-12-07T14:36:47;10.20;;;7.40;;
7402;SDS011;3742;48.770;11.440;2022-12-07T14:39:18;8.20;;;6.57;;
7402;SDS011;3742;48.770;11.440;2022-12-07T14:41:46;10.37;;;7.93;;
7402;SDS011;3742;48.770;11.440;2022-12-07T14:44:18;12.30;;;7.70;;
7402;SDS011;3742;48.770;11.440;2022-12-07T14:46:53;10.80;;;8.07;;
7402;SDS011;3742;48.770;11.440;2022-12-07T14:49:41;10.30;;;7.40;;
7402;SDS011;3742;48.770;11.440;2022-12-07T14:52:11;10.40;;;7.60;;
7402;SDS011;3742;48.770;11.440;2022-12-07T14:55:04;11.10;;;7.63;;
7402;SDS011;3742;48.770;11.440;2022-12-07T14:57:36;9.37;;;7.00;;
7402;SDS011;3742;48.770;11.440;2022-12-07T15:00:05;10.23;;;7.57;;
7402;SDS011;3742;48.770;11.440;2022-12-07T15:02:34;9.63;;;7.37;;
7402;SDS011;3742;48.770;11.440;2022-12-07T15:05:03;10.27;;;7.70;;
7402;SDS011;3742;48.770;11.440;2022-12-07T15:07:40;10.17;;;7.50;;
7402;SDS011;3742;48.770;11.440;2022-12-07T15:10:13;12.23;;;8.37;;
7402;SDS011;3742;48.770;11.440;2022-12-07T15:12:49;12.70;;;8.43;;
7402;SDS011;3742;48.770;11.440;2022-12-07T15:15:20;16.60;;;10.33;;
7402;SDS011;3742;48.770;11.440;2022-12-07T15:17:52;12.47;;;8.57;;
7402;SDS011;3742;48.770;11.440;2022-12-07T15:20:21;13.20;;;9.13;;
7402;SDS011;3742;48.770;11.440;2022-12-07T15:22:50;12.13;;;8.33;;
7402;SDS011;3742;48.770;11.440;2022-12-07T15:25:21;10.67;;;8.33;;
7402;SDS011;3742;48.770;11.440;2022-12-07T15:27:49;11.47;;;8.20;;
7402;SDS011;3742;48.770;11.440;2022-12-07T15:30:18;9.13;;;7.17;;
7402;SDS011;3742;48.770;11.440;2022-12-07T15:32:48;8.77;;;7.30;;
7402;SDS011;3742;48.770;11.440;2022-12-07T15:35:17;12.87;;;7.43;;
7402;SDS011;3742;48.770;11.440;2022-12-07T15:37:45;8.20;;;7.20;;
7402;SDS011;3742;48.770;11.440;2022-12-07T15:40:14;10.03;;;7.40;;
7402;SDS011;3742;48.770;11.440;2022-12-07T15:42:44;9.40;;;7.03;;
7402;SDS011;3742;48.770;11.440;2022-12-07T15:45:13;9.33;;;5.60;;
7402;SDS011;3742;48.770;11.440;2022-12-07T15:47:42;9.60;;;6.90;;
7402;SDS011;3742;48.770;11.440;2022-12-07T15:50:32;11.07;;;6.60;;
7402;SDS011;3742;48.770;11.440;2022-12-07T15:53:01;7.63;;;6.70;;
7402;SDS011;3742;48.770;11.440;2022-12-07T15:55:29;7.13;;;6.03;;
7402;SDS011;3742;48.770;11.440;2022-12-07T15:57:59;6.53;;;5.73;;